createdAt,value
2022-09-11T04:12:08.376Z,0.01
2022-09-11T04:19:27.642Z,0.02
2022-09-11T04:21:25.811Z,0.03
2022-09-11T04:24:12.849Z,0.05
2022-09-11T04:26:45.599Z,0.09
2022-09-11T04:29:04.231Z,0.13
2022-09-11T04:31:08.568Z,0.19
2022-09-11T04:34:01.902Z,0.32
2022-09-11T04:36:40.966Z,0.57
2022-09-11T04:39:05.772Z,0.9
2022-09-11T04:41:16.533Z,1.27
2022-09-11T04:44:16.101Z,1.92
2022-09-11T04:47:01.357Z,2.9
2022-09-11T04:49:32.310Z,4.04
2022-09-11T04:51:49.214Z,5.11
2022-09-11T04:53:51.839Z,6.27
2022-09-11T04:56:43.290Z,7.41
2022-09-11T04:59:20.673Z,9.26
2022-09-11T05:01:43.829Z,11.6
2022-09-11T05:03:52.536Z,13.67
2022-09-11T05:06:50.359Z,15.29
2022-09-11T05:09:33.919Z,16.7
2022-09-11T05:12:02.790Z,18.54
2022-09-11T05:14:17.705Z,19.52
2022-09-11T05:16:18.676Z,20.68
2022-09-11T05:19:08.267Z,23.41
2022-09-11T05:21:43.620Z,25.93
2022-09-11T05:24:04.998Z,30.89
2022-09-11T05:26:12.099Z,33.86
2022-09-11T05:29:07.920Z,38.5
2022-09-11T05:31:49.876Z,43.44
2022-09-11T05:34:17.367Z,49.8
2022-09-11T05:36:30.669Z,52.48
2022-09-11T05:38:29.903Z,53.82
2022-09-11T05:41:17.960Z,55.7
2022-09-11T05:43:51.731Z,56.62
2022-09-11T05:46:11.136Z,57.68
2022-09-11T05:48:16.575Z,59.76
2022-09-11T05:51:10.967Z,62.32
2022-09-11T05:53:50.650Z,63.8
2022-09-11T05:56:16.438Z,66.78
2022-09-11T05:58:27.950Z,69.14
2022-09-11T06:01:28.268Z,71.44
2022-09-11T06:04:14.094Z,75.84
2022-09-11T06:06:46.057Z,83.2
2022-09-11T06:09:03.742Z,86.64
2022-09-11T06:11:07.386Z,88.84
2022-09-11T06:13:59.843Z,96.08
2022-09-11T06:16:37.995Z,107.08
2022-09-11T06:19:01.736Z,109.44
2022-09-11T06:21:11.505Z,126.24
2022-09-11T06:24:10.164Z,158.32
2022-09-11T06:26:54.359Z,162.88
2022-09-11T06:29:24.608Z,154.6
2022-09-11T06:31:40.505Z,153.92
2022-09-11T06:33:42.248Z,149.4
2022-09-11T06:36:32.789Z,193.6
2022-09-11T06:39:09.218Z,186
2022-09-11T06:41:31.341Z,175.2
2022-09-11T06:43:39.462Z,207.9
2022-09-11T06:46:36.300Z,248
2022-09-11T06:49:18.856Z,254.4
2022-09-11T06:51:47.037Z,224.8
2022-09-11T06:54:01.222Z,224.9
2022-09-11T06:56:00.785Z,204.8
2022-09-11T06:58:49.476Z,256.4
2022-09-11T07:01:24.333Z,260.7
2022-09-11T07:03:44.522Z,268.8
2022-09-11T07:05:50.568Z,283.2
2022-09-11T07:08:45.627Z,342.8
2022-09-11T07:11:26.410Z,379
2022-09-11T07:13:52.982Z,332.4
2022-09-11T07:16:05.506Z,282.7
2022-09-11T07:18:03.683Z,317.5
2022-09-11T07:20:50.534Z,339
2022-09-11T07:23:23.051Z,299
2022-09-11T07:25:41.562Z,332
2022-09-11T07:27:45.809Z,344.9
2022-09-11T07:30:38.874Z,320
2022-09-11T07:33:19.443Z,297.8
2022-09-11T07:35:42.589Z,264.2
2022-09-11T07:37:53.029Z,242
2022-09-11T07:40:52.525Z,243.5
2022-09-11T07:43:37.637Z,230
2022-09-11T07:46:08.614Z,195.6
2022-09-11T07:48:24.791Z,194.4
2022-09-11T07:50:27.366Z,193.5
2022-09-11T07:53:18.899Z,189
2022-09-11T07:55:56.014Z,194.8
2022-09-11T07:58:19.062Z,207.6
2022-09-11T08:00:27.762Z,216.4
2022-09-11T08:03:25.270Z,241.7
2022-09-11T08:06:08.368Z,284.4
2022-09-11T08:08:37.544Z,341.7
2022-09-11T08:10:52.472Z,488.1
2022-09-11T08:12:56.864Z,524.9
2022-09-11T08:15:43.199Z,542.8
2022-09-11T08:18:18.299Z,561.9
2022-09-11T08:20:39.284Z,614.2
2022-09-11T08:22:46.310Z,661.1
2022-09-11T08:25:41.960Z,737.2
2022-09-11T08:28:23.448Z,797.1
2022-09-11T08:30:50.932Z,799
2022-09-11T08:33:04.049Z,623.6
2022-09-11T08:35:02.912Z,602.8
2022-09-11T08:37:54.200Z,479
2022-09-11T08:40:23.978Z,580.3
2022-09-11T08:42:43.273Z,524
2022-09-11T08:44:48.531Z,478.7
2022-09-11T08:47:42.549Z,423.5
2022-09-11T08:50:22.296Z,305.4
2022-09-11T08:52:47.753Z,242.5
2022-09-11T08:54:59.169Z,205.7
2022-09-11T08:57:59.315Z,141
2022-09-11T09:00:45.180Z,117.88
2022-09-11T09:03:16.942Z,125.28
2022-09-11T09:05:34.512Z,122.2
2022-09-11T09:07:37.774Z,110.64
2022-09-11T09:10:29.985Z,110.4
2022-09-11T09:13:08.000Z,127.12
2022-09-11T09:15:31.950Z,170
2022-09-11T09:17:41.433Z,221.1
2022-09-11T09:20:39.896Z,274.5
2022-09-11T09:23:24.051Z,368
2022-09-11T09:25:53.877Z,417.2
2022-09-11T09:28:09.692Z,476
2022-09-11T09:30:11.240Z,534.2
2022-09-11T09:33:01.109Z,863
2022-09-11T09:35:37.312Z,684.4
2022-09-11T09:38:00.376Z,853.1
2022-09-11T09:40:07.426Z,837.4
2022-09-11T09:43:03.562Z,550.7
2022-09-11T09:45:45.986Z,817.6
2022-09-11T09:48:14.041Z,484
2022-09-11T09:50:27.852Z,362.5
2022-09-11T09:52:27.655Z,328
2022-09-11T09:55:16.180Z,318.7
2022-09-11T09:57:50.406Z,288.4
2022-09-11T10:00:10.625Z,277
2022-09-11T10:02:16.537Z,270.8
2022-09-11T10:05:11.220Z,245.7
2022-09-11T10:07:51.828Z,273.4
2022-09-11T10:10:18.127Z,327.8
2022-09-11T10:12:30.168Z,411.8
2022-09-11T10:14:50.246Z,958
2022-09-11T10:17:15.009Z,964.8
2022-09-11T10:19:47.455Z,944.6
2022-09-11T10:22:05.659Z,412.8
2022-09-11T10:24:09.469Z,703.6
2022-09-11T10:27:02.387Z,906.5
2022-09-11T10:29:41.035Z,685.4
2022-09-11T10:32:05.664Z,935
2022-09-11T10:34:15.979Z,489.1
2022-09-11T10:37:15.031Z,715.8
2022-09-11T10:40:00.138Z,947.2
2022-09-11T10:42:30.934Z,412.6
2022-09-11T10:44:47.420Z,367.6
2022-09-11T10:46:49.864Z,319.6
2022-09-11T10:49:41.012Z,245.3
2022-09-11T10:52:17.898Z,184.2
2022-09-11T10:54:40.502Z,149.32
2022-09-11T10:56:49.098Z,117.16
2022-09-11T10:59:46.480Z,111.36
2022-09-11T11:02:29.627Z,127.28
2022-09-11T11:04:58.556Z,142.24
2022-09-11T11:07:13.409Z,142.28
2022-09-11T11:09:13.827Z,150.28
2022-09-11T11:12:03.260Z,175.9
2022-09-11T11:14:38.448Z,195.9
2022-09-11T11:16:58.961Z,211.4
2022-09-11T11:19:05.837Z,223.3
2022-09-11T11:22:01.396Z,240.8
2022-09-11T11:24:42.745Z,262.1
2022-09-11T11:27:09.843Z,280.2
2022-09-11T11:29:22.873Z,291.7
2022-09-11T11:31:21.722Z,297.4
2022-09-11T11:34:09.187Z,327.2
2022-09-11T11:36:42.687Z,345.7
2022-09-11T11:39:01.893Z,365.4
2022-09-11T11:41:06.883Z,383.5
2022-09-11T11:44:00.807Z,658.8
2022-09-11T11:46:40.407Z,880.9
2022-09-11T11:49:05.716Z,956.8
2022-09-11T11:51:17.053Z,952
2022-09-11T11:54:17.131Z,897.9
2022-09-11T11:57:02.909Z,894
2022-09-11T11:59:34.349Z,922.2
2022-09-11T12:01:51.856Z,962.5
2022-09-11T12:03:54.962Z,1018.5
2022-09-11T12:06:46.740Z,661.1
2022-09-11T12:09:24.162Z,881.9
2022-09-11T12:11:47.707Z,877.1
2022-09-11T12:13:56.982Z,1225.2
2022-09-11T12:16:55.143Z,752.6
2022-09-11T12:19:39.055Z,582.4
2022-09-11T12:22:08.774Z,1014
2022-09-11T12:24:24.179Z,564.6
2022-09-11T12:26:25.551Z,530.4
2022-09-11T12:29:15.544Z,470.7
2022-09-11T12:31:51.670Z,624.6
2022-09-11T12:34:13.381Z,622.5
2022-09-11T12:36:20.556Z,563
2022-09-11T12:39:16.760Z,695.6
2022-09-11T12:41:58.941Z,802.5
2022-09-11T12:44:26.861Z,718
2022-09-11T12:46:40.482Z,757.7
2022-09-11T12:48:40.177Z,703.6
2022-09-11T12:51:28.403Z,710
2022-09-11T12:53:46.776Z,651.3
2022-09-11T12:55:43.931Z,946.8
2022-09-11T12:58:33.195Z,755.2
2022-09-11T13:01:08.101Z,902
2022-09-11T13:03:28.954Z,862
2022-09-11T13:05:35.609Z,604.9
2022-09-11T13:08:31.170Z,675.8
2022-09-11T13:11:15.259Z,655
2022-09-11T13:13:39.544Z,911.3
2022-09-11T13:15:52.677Z,518.8
2022-09-11T13:17:51.472Z,491.3
2022-09-11T13:20:38.892Z,493.2
2022-09-11T13:23:12.079Z,846
2022-09-11T13:25:31.274Z,855.3
2022-09-11T13:27:36.241Z,849.9
2022-09-11T13:30:29.791Z,839.6
2022-09-11T13:33:09.351Z,826.5
2022-09-11T13:35:34.683Z,821.1
2022-09-11T13:37:45.792Z,833.2
2022-09-11T13:40:45.756Z,851.2
2022-09-11T13:43:31.491Z,888.6
2022-09-11T13:46:02.981Z,890.5
2022-09-11T13:48:20.247Z,915.2
2022-09-11T13:50:23.476Z,916.4
2022-09-11T13:53:14.935Z,928.6
2022-09-11T13:55:52.531Z,459.5
2022-09-11T13:58:16.146Z,877.7
2022-09-11T14:00:25.472Z,904
2022-09-11T14:03:23.418Z,897.6
2022-09-11T14:06:07.336Z,893.4
2022-09-11T14:08:36.983Z,893.1
2022-09-11T14:10:52.400Z,567.6
2022-09-11T14:12:53.823Z,857.9
2022-09-11T14:15:43.828Z,847
2022-09-11T14:18:19.551Z,601.9
2022-09-11T14:20:41.108Z,431.5
2022-09-11T14:22:48.722Z,430.7
2022-09-11T14:25:44.865Z,373.1
2022-09-11T14:28:26.805Z,335.3
2022-09-11T14:30:54.754Z,320.8
2022-09-11T14:33:08.455Z,313.2
2022-09-11T14:35:07.951Z,301
2022-09-11T14:37:56.252Z,282.8
2022-09-11T14:40:30.355Z,280.1
2022-09-11T14:42:50.230Z,265.3
2022-09-11T14:44:55.743Z,245.1
2022-09-11T14:47:50.267Z,226.3
2022-09-11T14:50:30.485Z,220.9
2022-09-11T14:52:56.452Z,214.9
2022-09-11T14:55:08.528Z,209.2
2022-09-11T14:57:06.237Z,205.2
2022-09-11T14:59:52.603Z,198.4
2022-09-11T15:02:25.165Z,182
2022-09-11T15:04:43.139Z,175.6
2022-09-11T15:06:47.079Z,174.7
2022-09-11T15:09:39.832Z,149.16
2022-09-11T15:12:18.351Z,129.16
2022-09-11T15:14:56.054Z,120.6
2022-09-11T15:16:52.991Z,115.88
2022-09-11T15:19:51.931Z,102.8
2022-09-11T15:22:36.595Z,102.96
2022-09-11T15:25:07.089Z,114.2
2022-09-11T15:27:23.618Z,125.16
2022-09-11T15:29:28.262Z,133.28
2022-09-11T15:32:16.644Z,135.6
2022-09-11T15:34:53.511Z,141.28
2022-09-11T15:37:15.791Z,151.32
2022-09-11T15:39:24.200Z,150.48
2022-09-11T15:42:21.496Z,176.9
2022-09-11T15:45:04.505Z,177.4
2022-09-11T15:47:33.266Z,159.4
2022-09-11T15:49:47.766Z,180.6
2022-09-11T15:51:48.310Z,207
2022-09-11T15:54:37.468Z,200.7
2022-09-11T15:57:12.424Z,195.6
2022-09-11T15:59:33.358Z,148.32
2022-09-11T16:01:40.115Z,138.36
2022-09-11T16:04:35.359Z,138.2
2022-09-11T16:07:16.665Z,158.8
2022-09-11T16:09:43.847Z,207
2022-09-11T16:11:56.510Z,205.2
2022-09-11T16:13:55.336Z,199.7
2022-09-11T16:16:42.791Z,184.4
2022-09-11T16:19:15.969Z,142.36
2022-09-11T16:21:34.919Z,158.76
2022-09-11T16:23:39.878Z,174.3
2022-09-11T16:26:33.456Z,175.1
2022-09-11T16:29:12.328Z,176.6
2022-09-11T16:31:37.685Z,155.76
2022-09-11T16:33:48.744Z,144.92
2022-09-11T16:36:48.403Z,130.36
2022-09-11T16:39:34.091Z,117.96
2022-09-11T16:44:22.652Z,116.56
2022-09-11T16:46:25.867Z,111.96
2022-09-11T16:49:17.684Z,102.96
2022-09-11T16:51:55.284Z,97.16
2022-09-11T16:54:18.689Z,97.28
2022-09-11T16:56:28.068Z,98.16
2022-09-11T16:59:26.078Z,96.08
2022-09-11T17:02:09.851Z,88.68
2022-09-11T17:04:39.564Z,75.58
2022-09-11T17:06:55.079Z,67.54
2022-09-11T17:08:56.344Z,62.6
2022-09-11T17:11:46.523Z,58.84
2022-09-11T17:14:22.427Z,56.54
2022-09-11T17:16:44.102Z,53.48
2022-09-11T17:18:51.779Z,49.36
2022-09-11T17:21:47.643Z,43
2022-09-11T17:24:29.719Z,39.54
2022-09-11T17:26:57.491Z,34.88
2022-09-11T17:29:11.315Z,30.63
2022-09-11T17:31:10.986Z,26.49
2022-09-11T17:33:59.144Z,21.93
2022-09-11T17:36:33.392Z,19.61
2022-09-11T17:38:53.395Z,16.57
2022-09-11T17:40:59.138Z,14.4
2022-09-11T17:43:53.839Z,11.52
2022-09-11T17:46:34.332Z,8.42
2022-09-11T17:49:00.441Z,6.47
2022-09-11T17:51:12.633Z,5.18
2022-09-11T17:53:10.579Z,4.17
2022-09-11T17:55:57.154Z,2.84
2022-09-11T17:58:29.463Z,2.09
2022-09-11T18:00:47.772Z,1.37
2022-09-11T18:02:51.911Z,0.99
2022-09-11T18:05:44.540Z,0.61
2022-09-11T18:08:23.271Z,0.4
2022-09-11T18:10:47.731Z,0.27
2022-09-11T18:12:57.595Z,0.18
2022-09-11T18:15:56.673Z,0.11
2022-09-11T18:18:41.476Z,0.07
2022-09-11T18:21:12.109Z,0.05
2022-09-11T18:23:29.672Z,0.03
2022-09-11T18:25:30.832Z,0.02
2022-09-11T18:28:21.915Z,0.01
2022-09-11T18:45:54.210Z,0
2022-09-11T18:47:54.865Z,0.01
2022-09-11T18:50:44.232Z,0.02
2022-09-11T18:53:19.305Z,0.01
2022-09-11T19:00:42.684Z,0
2022-09-11T19:12:50.335Z,0.01
2022-09-11T19:19:48.149Z,0
2022-09-11T19:32:57.985Z,0.01
2022-09-11T19:35:43.653Z,0
2022-09-11T19:40:32.765Z,0.01
2022-09-11T19:52:39.107Z,0
2022-09-11T19:58:23.856Z,0.01
2022-09-11T20:00:50.687Z,0
2022-09-11T20:03:06.367Z,0.01
2022-09-11T20:05:07.819Z,0
2022-09-11T20:10:34.129Z,0.01
2022-09-11T20:15:03.573Z,0
2022-09-11T20:23:10.394Z,0.01
2022-09-11T21:02:00.456Z,0
